createdAt,value
2019-03-12T21:22:05.587Z,12.63
2019-03-12T21:24:02.692Z,8.73
2019-03-12T21:26:33.389Z,8.65
2019-03-12T21:28:52.245Z,10.63
2019-03-12T21:30:46.986Z,11.30
2019-03-12T21:32:41.254Z,9.43
2019-03-12T21:34:36.321Z,9.05
2019-03-12T21:36:31.216Z,16.10
2019-03-12T21:38:25.982Z,14.35
2019-03-12T21:40:20.724Z,12.28
2019-03-12T21:42:17.106Z,16.50
2019-03-12T21:44:11.878Z,8.68
2019-03-12T21:46:07.536Z,11.43
2019-03-12T21:48:02.634Z,6.92
2019-03-12T21:49:58.442Z,7.33
2019-03-12T21:51:53.634Z,6.37
2019-03-12T21:53:48.661Z,12.68
2019-03-12T21:55:43.964Z,10.03
2019-03-12T21:57:38.161Z,8.03
2019-03-12T21:59:31.534Z,10.53
2019-03-12T22:03:17.376Z,9.90
2019-03-12T22:05:10.895Z,9.93
2019-03-12T22:07:03.947Z,8.98
2019-03-12T22:08:57.443Z,7.53
2019-03-12T22:10:50.953Z,5.95
2019-03-12T22:12:43.849Z,9.13
2019-03-12T22:14:37.256Z,8.00
2019-03-12T22:16:30.893Z,6.05
2019-03-12T22:18:24.193Z,6.75
2019-03-12T22:20:17.546Z,8.93
2019-03-12T22:22:15.088Z,5.97
2019-03-12T22:24:12.335Z,6.50
2019-03-12T22:26:05.674Z,9.35
2019-03-12T22:27:58.796Z,7.95
2019-03-12T22:29:52.522Z,10.25
2019-03-12T22:31:45.567Z,6.20
2019-03-12T22:33:38.893Z,8.55
2019-03-12T22:35:31.632Z,5.83
2019-03-12T22:37:25.139Z,5.53
2019-03-12T22:39:18.009Z,6.03
2019-03-12T22:41:11.255Z,5.58
2019-03-12T22:43:04.033Z,5.37
2019-03-12T22:44:57.530Z,4.90
2019-03-12T22:46:50.505Z,7.80
2019-03-12T22:50:35.487Z,7.50
2019-03-12T22:52:28.240Z,4.40
2019-03-12T22:54:21.713Z,5.92
2019-03-12T22:56:15.022Z,6.72
2019-03-12T22:58:08.716Z,5.90
2019-03-12T23:00:21.755Z,5.28
2019-03-12T23:02:33.076Z,4.58
2019-03-12T23:04:44.350Z,7.65
2019-03-12T23:06:55.789Z,6.35
2019-03-12T23:09:07.231Z,4.92
2019-03-12T23:11:02.380Z,5.95
2019-03-12T23:12:55.550Z,5.10
2019-03-12T23:14:49.629Z,4.58
2019-03-12T23:16:43.885Z,4.25
2019-03-12T23:18:37.127Z,5.22
2019-03-12T23:20:29.952Z,6.05
2019-03-12T23:22:23.024Z,5.45
2019-03-12T23:24:16.422Z,6.37
2019-03-12T23:26:09.708Z,2.95
2019-03-12T23:28:03.162Z,3.37
2019-03-12T23:29:56.201Z,6.65
2019-03-12T23:31:50.447Z,4.55
2019-03-12T23:35:35.772Z,5.00
2019-03-12T23:39:20.574Z,5.35
2019-03-12T23:43:06.194Z,4.30
2019-03-12T23:44:59.525Z,4.22
2019-03-12T23:46:52.463Z,2.75
2019-03-12T23:48:45.293Z,4.55
2019-03-12T23:50:38.128Z,4.65
2019-03-12T23:54:23.972Z,3.90
2019-03-12T23:56:17.119Z,3.60
2019-03-12T23:58:10.675Z,4.70
